createdAt,value
2019-01-27T00:01:56.941Z,40.63
2019-01-27T00:04:28.951Z,41.95
2019-01-27T00:07:00.867Z,38.58
2019-01-27T00:09:35.389Z,39.88
2019-01-27T00:12:07.401Z,38.38
2019-01-27T00:14:39.439Z,38.28
2019-01-27T00:17:11.783Z,37.08
2019-01-27T00:19:43.874Z,33.45
2019-01-27T00:22:15.853Z,35.65
2019-01-27T00:24:47.962Z,35.55
2019-01-27T00:27:19.945Z,45.50
2019-01-27T00:29:51.933Z,43.68
2019-01-27T00:32:23.829Z,38.73
2019-01-27T00:34:55.855Z,38.60
2019-01-27T00:37:27.798Z,39.08
2019-01-27T00:39:59.764Z,38.35
2019-01-27T00:42:31.713Z,37.30
2019-01-27T00:45:03.680Z,36.75
2019-01-27T00:47:35.599Z,38.85
2019-01-27T00:50:07.911Z,38.40
2019-01-27T00:52:40.079Z,34.08
2019-01-27T00:55:15.219Z,36.17
2019-01-27T00:57:47.274Z,37.03
2019-01-27T01:00:22.380Z,38.20
2019-01-27T01:02:54.374Z,35.65
2019-01-27T01:05:29.517Z,33.33
2019-01-27T01:08:01.609Z,30.72
2019-01-27T01:10:33.847Z,33.28
2019-01-27T01:13:06.995Z,33.38
2019-01-27T01:15:39.105Z,37.00
2019-01-27T01:18:11.897Z,39.00
2019-01-27T01:20:43.960Z,34.48
2019-01-27T01:23:16.486Z,37.00
2019-01-27T01:25:48.650Z,33.42
2019-01-27T01:28:22.091Z,28.07
2019-01-27T01:30:54.068Z,28.47
2019-01-27T01:33:26.066Z,27.27
2019-01-27T01:35:58.254Z,27.15
2019-01-27T01:38:30.205Z,23.70
2019-01-27T01:41:02.325Z,23.15
2019-01-27T01:43:34.301Z,24.23
2019-01-27T01:46:06.652Z,26.37
2019-01-27T01:48:38.536Z,25.37
2019-01-27T01:51:10.600Z,25.23
2019-01-27T01:53:42.692Z,24.67
2019-01-27T01:56:15.074Z,26.00
2019-01-27T01:58:47.025Z,25.75
2019-01-27T02:01:19.151Z,25.25
2019-01-27T02:03:51.319Z,26.95
2019-01-27T02:06:23.326Z,25.95
2019-01-27T02:08:55.288Z,28.80
2019-01-27T02:11:27.194Z,26.42
2019-01-27T02:13:59.213Z,25.52
2019-01-27T02:16:31.182Z,24.20
2019-01-27T02:19:03.110Z,24.02
2019-01-27T02:21:37.083Z,20.17
2019-01-27T02:24:09.280Z,21.35
2019-01-27T02:26:42.443Z,20.85
2019-01-27T02:29:14.376Z,20.10
2019-01-27T02:31:47.767Z,21.37
2019-01-27T02:34:19.672Z,20.25
2019-01-27T02:36:51.628Z,20.65
2019-01-27T02:39:23.602Z,21.20
2019-01-27T02:41:55.511Z,19.90
2019-01-27T02:44:27.468Z,19.75
2019-01-27T02:46:59.416Z,20.10
2019-01-27T02:49:33.280Z,20.90
2019-01-27T02:52:06.139Z,21.42
2019-01-27T02:54:38.166Z,19.37
2019-01-27T02:57:10.214Z,20.40
2019-01-27T02:59:42.284Z,19.82
2019-01-27T03:02:14.318Z,20.27
2019-01-27T03:04:46.310Z,20.52
2019-01-27T03:07:33.539Z,21.73
2019-01-27T03:10:08.956Z,21.42
2019-01-27T03:12:45.476Z,21.57
2019-01-27T03:15:18.861Z,21.15
2019-01-27T03:17:50.923Z,21.57
2019-01-27T03:20:22.931Z,20.97
2019-01-27T03:22:55.004Z,21.17
2019-01-27T03:25:26.969Z,19.35
2019-01-27T03:27:59.259Z,19.00
2019-01-27T03:30:31.359Z,17.35
2019-01-27T03:33:03.499Z,16.32
2019-01-27T03:35:35.522Z,17.67
2019-01-27T03:38:07.494Z,20.68
2019-01-27T03:40:40.610Z,22.77
2019-01-27T03:43:12.558Z,21.25
2019-01-27T03:45:44.677Z,21.20
2019-01-27T03:48:16.670Z,21.45
2019-01-27T03:50:48.647Z,21.50
2019-01-27T03:53:20.612Z,19.25
2019-01-27T03:55:52.534Z,18.55
2019-01-27T03:58:24.476Z,20.80
2019-01-27T04:00:56.404Z,20.20
2019-01-27T04:03:28.376Z,22.93
2019-01-27T04:06:00.431Z,22.27
2019-01-27T04:08:32.395Z,25.82
2019-01-27T04:11:04.723Z,24.60
2019-01-27T04:13:36.690Z,25.50
2019-01-27T04:16:15.581Z,26.02
2019-01-27T04:18:47.516Z,25.45
2019-01-27T04:21:19.479Z,24.12
2019-01-27T04:23:51.441Z,23.85
2019-01-27T04:26:23.382Z,23.22
2019-01-27T04:28:55.317Z,21.85
2019-01-27T04:31:27.291Z,19.55
2019-01-27T04:33:59.240Z,18.60
2019-01-27T04:36:31.153Z,19.05
2019-01-27T04:39:03.108Z,18.80
2019-01-27T04:41:35.087Z,17.15
2019-01-27T04:44:06.996Z,16.30
2019-01-27T04:46:38.962Z,20.40
2019-01-27T04:49:10.945Z,19.55
2019-01-27T04:51:42.929Z,20.17
2019-01-27T04:54:15.069Z,21.60
2019-01-27T04:56:49.058Z,21.40
2019-01-27T04:59:21.000Z,20.82
2019-01-27T05:01:52.931Z,21.05
2019-01-27T05:04:36.460Z,19.82
2019-01-27T05:07:08.514Z,20.92
2019-01-27T05:09:40.485Z,19.27
2019-01-27T05:12:12.484Z,21.85
2019-01-27T05:14:44.484Z,21.05
2019-01-27T05:17:16.410Z,22.52
2019-01-27T05:19:48.407Z,21.77
2019-01-27T05:22:20.460Z,21.25
2019-01-27T05:24:52.835Z,20.37
2019-01-27T05:27:25.423Z,19.20
2019-01-27T05:29:57.549Z,21.23
2019-01-27T05:32:29.497Z,21.37
2019-01-27T05:35:02.630Z,19.48
2019-01-27T05:37:34.597Z,18.80
2019-01-27T05:40:08.248Z,20.75
2019-01-27T05:42:40.353Z,19.82
2019-01-27T05:45:14.246Z,18.52
2019-01-27T05:47:46.405Z,17.67
2019-01-27T05:50:18.721Z,17.30
2019-01-27T05:52:50.749Z,15.68
2019-01-27T05:55:22.915Z,15.18
2019-01-27T05:57:57.406Z,16.27
2019-01-27T06:00:37.536Z,15.20
2019-01-27T06:03:12.179Z,15.30
2019-01-27T06:05:44.416Z,16.10
2019-01-27T06:08:16.575Z,15.60
2019-01-27T06:10:48.491Z,14.78
2019-01-27T06:13:20.459Z,15.70
2019-01-27T06:15:52.392Z,14.63
2019-01-27T06:18:24.380Z,15.60
2019-01-27T06:20:56.295Z,17.17
2019-01-27T06:23:28.450Z,16.42
2019-01-27T06:26:00.417Z,16.10
2019-01-27T06:28:32.377Z,15.72
2019-01-27T06:31:06.910Z,15.13
2019-01-27T06:33:45.730Z,14.55
2019-01-27T06:36:17.681Z,15.72
2019-01-27T06:38:49.600Z,14.53
2019-01-27T06:41:21.686Z,14.28
2019-01-27T06:43:53.621Z,13.85
2019-01-27T06:46:26.174Z,13.58
2019-01-27T06:48:58.803Z,12.53
2019-01-27T06:51:30.685Z,13.83
2019-01-27T06:54:02.681Z,14.13
2019-01-27T06:56:35.211Z,13.45
2019-01-27T06:59:26.026Z,12.88
2019-01-27T07:02:03.888Z,13.53
2019-01-27T07:04:40.798Z,13.70
2019-01-27T07:07:22.657Z,13.43
2019-01-27T07:10:03.552Z,12.80
2019-01-27T07:12:43.897Z,12.23
2019-01-27T07:15:35.218Z,13.22
2019-01-27T07:18:38.470Z,13.32
2019-01-27T07:21:41.658Z,11.78
2019-01-27T07:24:46.071Z,11.20
2019-01-27T07:27:43.025Z,9.28
2019-01-27T07:30:37.308Z,8.23
2019-01-27T07:33:26.741Z,8.08
2019-01-27T07:36:08.527Z,7.15
2019-01-27T07:39:07.079Z,6.30
2019-01-27T07:41:51.677Z,8.55
2019-01-27T07:44:43.904Z,7.65
2019-01-27T07:47:40.178Z,9.80
2019-01-27T07:50:33.543Z,10.08
2019-01-27T07:53:28.096Z,8.58
2019-01-27T07:56:21.961Z,9.85
2019-01-27T07:59:02.532Z,11.38
2019-01-27T08:01:44.885Z,11.73
2019-01-27T08:04:35.644Z,10.75
2019-01-27T08:07:28.641Z,10.03
2019-01-27T08:10:10.790Z,9.13
2019-01-27T08:13:04.355Z,8.85
2019-01-27T08:15:45.211Z,8.25
2019-01-27T08:18:26.582Z,8.33
2019-01-27T08:21:32.547Z,8.55
2019-01-27T08:24:31.457Z,8.78
2019-01-27T08:27:25.862Z,9.43
2019-01-27T08:30:22.467Z,9.38
2019-01-27T08:33:28.386Z,8.60
2019-01-27T08:36:17.899Z,9.48
2019-01-27T08:39:11.519Z,7.53
2019-01-27T08:42:11.381Z,7.62
2019-01-27T08:45:02.124Z,4.75
2019-01-27T08:47:34.185Z,4.80
2019-01-27T08:50:09.594Z,5.47
2019-01-27T08:52:42.607Z,4.30
2019-01-27T08:55:15.603Z,6.12
2019-01-27T08:57:48.106Z,5.35
2019-01-27T09:00:31.404Z,5.58
2019-01-27T09:03:29.386Z,6.75
2019-01-27T09:06:11.768Z,6.30
2019-01-27T09:09:19.336Z,7.12
2019-01-27T09:12:17.135Z,7.37
2019-01-27T09:15:11.032Z,14.78
2019-01-27T09:17:59.609Z,11.55
2019-01-27T09:20:49.927Z,9.00
2019-01-27T09:23:37.192Z,5.72
2019-01-27T09:26:23.042Z,4.78
2019-01-27T09:29:00.947Z,3.80
2019-01-27T09:31:58.691Z,2.40
2019-01-27T09:34:48.726Z,2.12
2019-01-27T09:37:34.962Z,1.57
2019-01-27T09:40:29.118Z,2.10
2019-01-27T09:43:25.960Z,3.55
2019-01-27T09:46:22.767Z,3.17
2019-01-27T09:49:00.261Z,2.30
2019-01-27T09:52:00.150Z,3.67
2019-01-27T09:54:58.632Z,2.95
2019-01-27T09:57:41.376Z,3.22
2019-01-27T10:00:39.065Z,3.62
2019-01-27T10:03:38.757Z,3.50
2019-01-27T10:06:35.800Z,3.77
2019-01-27T10:09:48.098Z,3.52
2019-01-27T10:12:38.879Z,3.65
2019-01-27T10:15:31.820Z,3.52
2019-01-27T10:18:21.459Z,5.70
2019-01-27T10:21:15.072Z,3.15
2019-01-27T10:24:04.404Z,4.60
2019-01-27T10:26:53.016Z,4.37
2019-01-27T10:29:43.866Z,6.75
2019-01-27T10:32:32.915Z,6.08
2019-01-27T10:35:24.332Z,8.88
2019-01-27T10:38:10.645Z,6.17
2019-01-27T10:40:53.975Z,4.78
2019-01-27T10:43:50.842Z,4.17
2019-01-27T10:46:38.469Z,3.12
2019-01-27T10:49:22.903Z,5.53
2019-01-27T10:52:11.312Z,6.08
2019-01-27T10:54:55.096Z,10.18
2019-01-27T10:57:43.532Z,7.00
2019-01-27T11:00:35.944Z,5.55
2019-01-27T11:03:40.288Z,5.72
2019-01-27T11:06:31.157Z,7.65
2019-01-27T11:09:17.951Z,9.23
2019-01-27T11:12:03.270Z,4.40
2019-01-27T11:14:57.268Z,3.98
2019-01-27T11:17:51.119Z,5.17
2019-01-27T11:20:40.623Z,3.37
2019-01-27T11:23:46.697Z,6.25
2019-01-27T11:26:36.320Z,4.33
2019-01-27T11:29:20.541Z,4.65
2019-01-27T11:32:10.749Z,5.17
2019-01-27T11:35:04.773Z,3.42
2019-01-27T11:37:54.449Z,3.67
2019-01-27T11:40:48.669Z,4.30
2019-01-27T11:43:38.190Z,3.90
2019-01-27T11:46:21.644Z,4.20
2019-01-27T11:49:12.173Z,5.92
2019-01-27T11:51:56.924Z,4.92
2019-01-27T11:54:28.929Z,4.65
2019-01-27T11:57:02.776Z,3.98
2019-01-27T11:59:34.852Z,6.28
2019-01-27T12:02:06.946Z,5.58
2019-01-27T12:04:38.907Z,6.12
2019-01-27T12:07:10.872Z,4.65
2019-01-27T12:09:42.793Z,3.67
2019-01-27T12:12:13.976Z,3.17
2019-01-27T12:14:46.523Z,3.92
2019-01-27T12:17:18.470Z,3.15
2019-01-27T12:19:50.960Z,5.55
2019-01-27T12:22:23.112Z,4.58
2019-01-27T12:24:55.048Z,4.10
2019-01-27T12:27:27.265Z,4.75
2019-01-27T12:29:59.278Z,5.60
2019-01-27T12:32:31.221Z,4.22
2019-01-27T12:35:03.229Z,4.17
2019-01-27T12:37:39.916Z,3.83
2019-01-27T12:40:15.306Z,4.03
2019-01-27T12:42:47.556Z,4.08
2019-01-27T12:45:21.570Z,4.67
2019-01-27T12:47:53.552Z,7.15
2019-01-27T12:50:26.008Z,10.00
2019-01-27T12:52:58.122Z,8.35
2019-01-27T12:55:30.575Z,4.70
2019-01-27T12:58:02.467Z,3.17
2019-01-27T13:00:47.589Z,3.72
2019-01-27T13:03:19.681Z,6.25
2019-01-27T13:05:51.805Z,4.45
2019-01-27T13:08:25.929Z,4.20
2019-01-27T13:10:58.148Z,6.08
2019-01-27T13:13:30.183Z,2.98
2019-01-27T13:16:02.217Z,3.22
2019-01-27T13:18:34.243Z,3.50
2019-01-27T13:21:06.179Z,3.77
2019-01-27T13:23:40.204Z,3.33
2019-01-27T13:26:12.296Z,3.92
2019-01-27T13:28:44.410Z,4.47
2019-01-27T13:31:16.396Z,3.33
2019-01-27T13:33:48.351Z,4.00
2019-01-27T13:36:20.787Z,3.70
2019-01-27T13:38:52.854Z,3.98
2019-01-27T13:41:24.978Z,3.20
2019-01-27T13:43:58.426Z,2.52
2019-01-27T13:46:30.425Z,3.27
2019-01-27T13:49:02.385Z,3.75
2019-01-27T13:51:34.355Z,3.20
2019-01-27T13:54:06.574Z,3.00
2019-01-27T13:56:38.556Z,2.30
2019-01-27T13:59:10.828Z,2.50
2019-01-27T14:01:42.771Z,2.55
2019-01-27T14:04:14.737Z,3.02
2019-01-27T14:06:46.748Z,2.65
2019-01-27T14:09:21.813Z,2.80
2019-01-27T14:11:54.138Z,3.35
2019-01-27T14:14:26.095Z,3.10
2019-01-27T14:16:58.051Z,3.92
2019-01-27T14:19:29.991Z,3.92
2019-01-27T14:22:03.666Z,4.45
2019-01-27T14:24:35.686Z,3.55
2019-01-27T14:27:07.672Z,3.50
2019-01-27T14:29:39.728Z,4.05
2019-01-27T14:32:11.648Z,4.33
2019-01-27T14:34:43.932Z,2.92
2019-01-27T14:37:15.899Z,3.20
2019-01-27T14:39:47.815Z,5.40
2019-01-27T14:42:19.786Z,4.22
2019-01-27T14:44:51.779Z,3.55
2019-01-27T14:47:26.507Z,3.62
2019-01-27T14:49:58.443Z,3.50
2019-01-27T14:52:31.563Z,3.50
2019-01-27T14:55:04.094Z,4.17
2019-01-27T14:57:36.165Z,3.77
2019-01-27T15:00:13.567Z,4.10
2019-01-27T15:02:45.631Z,2.95
2019-01-27T15:05:17.688Z,2.90
2019-01-27T15:07:49.788Z,3.17
2019-01-27T15:10:22.022Z,3.33
2019-01-27T15:12:54.457Z,3.10
2019-01-27T15:15:26.716Z,4.03
2019-01-27T15:18:05.246Z,3.45
2019-01-27T15:21:00.390Z,3.05
2019-01-27T15:23:33.282Z,4.30
2019-01-27T15:26:05.409Z,3.45
2019-01-27T15:28:37.482Z,4.33
2019-01-27T15:31:09.511Z,2.98
2019-01-27T15:33:41.435Z,3.42
2019-01-27T15:47:08.116Z,3.42
2019-01-27T15:49:43.027Z,3.35
2019-01-27T15:52:17.474Z,3.10
2019-01-27T15:54:49.421Z,2.40
2019-01-27T15:57:21.758Z,2.85
2019-01-27T15:59:54.302Z,3.33
2019-01-27T16:02:27.490Z,3.62
2019-01-27T16:04:59.776Z,5.95
2019-01-27T16:07:32.610Z,4.42
2019-01-27T16:10:06.878Z,4.17
2019-01-27T16:12:38.987Z,3.47
2019-01-27T16:15:13.269Z,4.50
2019-01-27T16:17:45.213Z,4.72
2019-01-27T16:20:18.164Z,6.47
2019-01-27T16:23:18.173Z,6.55
2019-01-27T16:25:50.323Z,4.87
2019-01-27T16:28:22.491Z,6.17
2019-01-27T16:31:03.826Z,6.15
2019-01-27T16:33:44.566Z,5.72
2019-01-27T16:36:16.476Z,4.55
2019-01-27T16:38:48.409Z,4.85
2019-01-27T16:41:20.335Z,5.22
2019-01-27T16:43:53.063Z,5.00
2019-01-27T16:46:25.220Z,4.78
2019-01-27T16:49:02.870Z,5.47
2019-01-27T16:51:31.511Z,4.87
2019-01-27T16:54:05.975Z,5.60
2019-01-27T16:56:38.307Z,6.40
2019-01-27T16:59:10.803Z,8.48
2019-01-27T17:01:43.096Z,7.85
2019-01-27T17:04:15.379Z,6.90
2019-01-27T17:06:48.192Z,6.50
2019-01-27T17:09:20.211Z,5.78
2019-01-27T17:11:53.149Z,6.95
2019-01-27T17:14:25.318Z,6.78
2019-01-27T17:16:57.388Z,8.18
2019-01-27T17:19:29.411Z,6.12
2019-01-27T17:22:01.462Z,5.42
2019-01-27T17:24:33.477Z,6.70
2019-01-27T17:27:07.471Z,9.45
2019-01-27T17:29:39.487Z,7.78
2019-01-27T17:32:12.919Z,8.93
2019-01-27T17:34:45.023Z,9.20
2019-01-27T17:37:16.998Z,8.98
2019-01-27T17:39:49.109Z,7.75
2019-01-27T17:42:21.317Z,10.35
2019-01-27T17:44:53.300Z,14.78
2019-01-27T17:47:29.400Z,11.33
2019-01-27T17:50:01.890Z,10.48
2019-01-27T17:52:35.355Z,7.70
2019-01-27T17:55:33.084Z,16.95
2019-01-27T17:58:19.797Z,11.15
2019-01-27T18:01:12.157Z,16.45
2019-01-27T18:03:53.421Z,18.17
2019-01-27T18:06:49.916Z,18.80
2019-01-27T18:09:46.897Z,12.35
2019-01-27T18:12:33.230Z,10.15
2019-01-27T18:15:06.540Z,11.90
2019-01-27T18:17:38.533Z,12.43
2019-01-27T18:20:13.442Z,13.40
2019-01-27T18:22:45.400Z,16.12
2019-01-27T18:25:17.540Z,10.58
2019-01-27T18:27:49.647Z,11.18
2019-01-27T18:30:23.984Z,10.05
2019-01-27T18:32:57.183Z,8.38
2019-01-27T18:35:29.294Z,7.75
2019-01-27T18:38:01.483Z,8.68
2019-01-27T18:40:33.431Z,7.62
2019-01-27T18:43:06.961Z,7.62
2019-01-27T18:45:39.022Z,8.80
2019-01-27T18:48:11.445Z,7.65
2019-01-27T18:50:43.605Z,7.40
2019-01-27T18:53:49.850Z,7.87
2019-01-27T18:56:30.231Z,7.22
2019-01-27T18:59:07.981Z,8.10
2019-01-27T19:02:13.938Z,6.72
2019-01-27T19:05:04.590Z,7.72
2019-01-27T19:07:44.904Z,7.90
2019-01-27T19:10:35.910Z,7.75
2019-01-27T19:13:17.754Z,8.13
2019-01-27T19:16:14.512Z,8.38
2019-01-27T19:19:01.586Z,8.13
2019-01-27T19:21:53.441Z,7.80
2019-01-27T19:24:53.415Z,7.35
2019-01-27T19:27:50.435Z,8.10
2019-01-27T19:30:47.359Z,7.12
2019-01-27T19:33:36.723Z,9.08
2019-01-27T19:36:27.679Z,7.75
2019-01-27T19:39:27.717Z,8.03
2019-01-27T19:42:15.419Z,8.00
2019-01-27T19:45:11.067Z,8.20
2019-01-27T19:47:49.499Z,7.45
2019-01-27T19:50:42.759Z,9.43
2019-01-27T19:53:32.058Z,8.48
2019-01-27T19:56:23.931Z,9.58
2019-01-27T19:59:18.061Z,13.40
2019-01-27T20:02:10.648Z,10.90
2019-01-27T20:04:53.965Z,11.20
2019-01-27T20:07:44.813Z,8.45
2019-01-27T20:10:35.928Z,8.00
2019-01-27T20:13:17.121Z,9.38
2019-01-27T20:16:15.663Z,10.25
2019-01-27T20:19:06.526Z,13.08
2019-01-27T20:22:14.038Z,14.18
2019-01-27T20:25:03.489Z,12.60
2019-01-27T20:27:54.470Z,13.75
2019-01-27T20:30:48.577Z,11.18
2019-01-27T20:33:31.498Z,10.55
2019-01-27T20:36:17.527Z,10.20
2019-01-27T20:39:17.378Z,10.15
2019-01-27T20:42:11.532Z,12.05
2019-01-27T20:45:18.744Z,12.10
2019-01-27T20:47:58.429Z,17.82
2019-01-27T20:51:01.336Z,18.82
2019-01-27T20:53:52.331Z,19.25
2019-01-27T20:56:31.571Z,13.48
2019-01-27T20:59:31.617Z,16.30
2019-01-27T21:02:39.838Z,15.32
2019-01-27T21:08:16.551Z,12.85
2019-01-27T21:11:15.476Z,12.28
2019-01-27T21:13:56.039Z,12.75
2019-01-27T21:16:48.302Z,13.38
2019-01-27T21:19:36.248Z,11.93
2019-01-27T21:22:08.949Z,12.10
2019-01-27T21:25:00.760Z,12.68
2019-01-27T21:27:45.410Z,12.43
2019-01-27T21:33:28.152Z,11.65
2019-01-27T21:36:11.047Z,12.98
2019-01-27T21:38:44.659Z,12.07
2019-01-27T21:41:18.777Z,12.98
2019-01-27T21:43:52.105Z,17.87
2019-01-27T21:46:26.189Z,21.57
2019-01-27T21:49:00.443Z,19.17
2019-01-27T21:51:35.050Z,16.70
2019-01-27T21:54:09.771Z,13.93
2019-01-27T21:56:45.114Z,12.65
2019-01-27T21:59:19.838Z,13.40
2019-01-27T22:01:56.409Z,13.18
2019-01-27T22:04:29.130Z,14.33
2019-01-27T22:07:01.087Z,15.47
2019-01-27T22:09:51.440Z,16.47
2019-01-27T22:12:26.032Z,17.55
2019-01-27T22:14:59.273Z,15.50
2019-01-27T22:17:40.158Z,17.37
2019-01-27T22:20:14.691Z,17.20
2019-01-27T22:22:46.710Z,17.35
2019-01-27T22:25:18.756Z,15.95
2019-01-27T22:27:51.688Z,16.37
2019-01-27T22:30:23.865Z,14.60
2019-01-27T22:32:55.813Z,16.30
2019-01-27T22:35:28.901Z,16.55
2019-01-27T22:38:00.835Z,16.27
2019-01-27T22:40:33.208Z,15.95
2019-01-27T22:43:05.538Z,17.07
2019-01-27T22:45:37.603Z,16.12
2019-01-27T22:48:09.568Z,15.88
2019-01-27T22:50:41.530Z,16.12
2019-01-27T22:53:13.571Z,15.83
2019-01-27T22:55:45.528Z,16.60
2019-01-27T22:58:17.794Z,17.07
2019-01-27T23:01:07.472Z,16.95
2019-01-27T23:03:41.698Z,18.15
2019-01-27T23:06:13.886Z,18.73
2019-01-27T23:08:45.846Z,14.10
2019-01-27T23:11:20.975Z,13.57
2019-01-27T23:13:52.942Z,14.53
2019-01-27T23:16:26.498Z,14.87
2019-01-27T23:18:59.660Z,15.18
2019-01-27T23:21:31.601Z,15.88
2019-01-27T23:24:04.960Z,15.70
2019-01-27T23:26:39.127Z,15.35
2019-01-27T23:29:12.896Z,15.63
2019-01-27T23:31:44.812Z,16.42
2019-01-27T23:34:17.150Z,15.65
2019-01-27T23:36:49.223Z,15.85
2019-01-27T23:39:21.173Z,15.83
2019-01-27T23:41:53.267Z,15.40
2019-01-27T23:44:25.370Z,13.60
2019-01-27T23:46:57.296Z,14.80
2019-01-27T23:49:29.240Z,13.32
2019-01-27T23:52:01.205Z,13.35
2019-01-27T23:54:35.316Z,14.07
2019-01-27T23:57:07.331Z,15.65
2019-01-27T23:59:39.261Z,15.43
